createdAt,value
2018-06-03T00:01:19.193Z,18.00
2018-06-03T00:03:46.797Z,18.00
2018-06-03T00:06:14.349Z,18.00
2018-06-03T00:08:42.021Z,18.00
2018-06-03T00:11:09.583Z,18.00
2018-06-03T00:13:37.955Z,18.00
2018-06-03T00:16:05.575Z,18.00
2018-06-03T00:18:33.948Z,18.00
2018-06-03T00:24:34.370Z,18.00
2018-06-03T00:27:02.655Z,18.00
2018-06-03T00:29:30.963Z,18.00
2018-06-03T00:31:59.289Z,18.00
2018-06-03T00:34:27.600Z,18.10
2018-06-03T00:36:55.903Z,18.10
2018-06-03T00:39:24.221Z,18.10
2018-06-03T00:41:52.497Z,18.10
2018-06-03T00:44:20.826Z,18.10
2018-06-03T00:46:49.104Z,18.00
2018-06-03T00:49:17.396Z,18.10
2018-06-03T00:51:45.714Z,18.10
2018-06-03T00:54:14.002Z,18.10
2018-06-03T00:56:53.851Z,18.10
2018-06-03T00:59:22.159Z,18.10
2018-06-03T01:01:51.217Z,18.10
2018-06-03T01:04:19.557Z,18.10
2018-06-03T01:06:47.968Z,18.10
2018-06-03T01:09:16.259Z,18.10
2018-06-03T01:11:44.564Z,18.10
2018-06-03T01:14:12.846Z,18.10
2018-06-03T01:16:41.156Z,18.10
2018-06-03T01:19:09.435Z,18.10
2018-06-03T01:21:37.763Z,18.10
2018-06-03T01:24:06.032Z,18.10
2018-06-03T01:26:34.325Z,18.10
2018-06-03T01:29:02.627Z,18.20
2018-06-03T01:31:30.938Z,18.10
2018-06-03T01:33:59.237Z,18.10
2018-06-03T01:36:27.547Z,18.20
2018-06-03T01:38:55.829Z,18.20
2018-06-03T01:41:24.149Z,18.20
2018-06-03T01:43:52.461Z,18.20
2018-06-03T01:46:20.999Z,18.20
2018-06-03T01:48:49.283Z,18.20
2018-06-03T01:51:17.597Z,18.20
2018-06-03T01:53:45.899Z,18.20
2018-06-03T01:56:14.199Z,18.20
2018-06-03T01:58:42.515Z,18.20
2018-06-03T02:01:10.928Z,18.20
2018-06-03T02:03:39.216Z,18.20
2018-06-03T02:06:07.550Z,18.20
2018-06-03T02:08:35.858Z,18.20
2018-06-03T02:11:04.185Z,18.20
2018-06-03T02:13:32.463Z,18.20
2018-06-03T02:16:00.759Z,18.20
2018-06-03T02:18:29.067Z,18.20
2018-06-03T02:20:57.375Z,18.20
2018-06-03T02:23:25.696Z,18.10
2018-06-03T02:25:54.280Z,18.20
2018-06-03T02:28:22.623Z,18.20
2018-06-03T02:30:51.304Z,18.20
2018-06-03T02:33:19.613Z,18.20
2018-06-03T02:38:15.966Z,18.10
2018-06-03T02:40:44.264Z,18.00
2018-06-03T02:43:12.571Z,18.00
2018-06-03T02:45:40.869Z,18.00
2018-06-03T02:48:09.175Z,18.00
2018-06-03T02:50:37.468Z,17.90
2018-06-03T02:53:05.792Z,17.90
2018-06-03T02:55:34.076Z,17.90
2018-06-03T02:58:02.396Z,17.90
2018-06-03T03:00:30.683Z,17.90
2018-06-03T03:02:58.991Z,17.80
2018-06-03T03:05:27.269Z,17.80
2018-06-03T03:07:55.596Z,17.80
2018-06-03T03:10:23.879Z,17.80
2018-06-03T03:12:52.175Z,17.80
2018-06-03T03:15:20.447Z,17.80
2018-06-03T03:17:48.746Z,17.70
2018-06-03T03:20:17.017Z,17.70
2018-06-03T03:22:45.305Z,17.70
2018-06-03T03:25:13.588Z,17.70
2018-06-03T03:27:41.896Z,17.70
2018-06-03T03:30:10.163Z,17.70
2018-06-03T03:32:38.554Z,17.70
2018-06-03T03:35:06.823Z,17.70
2018-06-03T03:37:35.883Z,17.70
2018-06-03T03:40:04.181Z,17.70
2018-06-03T03:42:32.455Z,17.70
2018-06-03T03:45:00.799Z,17.60
2018-06-03T03:47:29.068Z,17.60
2018-06-03T03:49:57.351Z,17.60
2018-06-03T03:52:25.623Z,17.60
2018-06-03T03:54:53.912Z,17.60
2018-06-03T03:57:22.195Z,17.60
2018-06-03T03:59:50.489Z,17.60
2018-06-03T04:02:18.773Z,17.50
2018-06-03T04:07:15.115Z,17.60
2018-06-03T04:09:43.443Z,17.50
2018-06-03T04:12:11.763Z,17.50
2018-06-03T04:14:40.060Z,17.50
2018-06-03T04:17:08.341Z,17.60
2018-06-03T04:19:36.647Z,17.50
2018-06-03T04:22:04.925Z,17.50
2018-06-03T04:24:33.207Z,17.50
2018-06-03T04:27:01.483Z,17.50
2018-06-03T04:29:29.771Z,17.60
2018-06-03T04:31:58.044Z,17.60
2018-06-03T04:34:26.367Z,17.60
2018-06-03T04:36:54.638Z,17.60
2018-06-03T04:39:22.992Z,17.60
2018-06-03T04:41:51.271Z,17.60
2018-06-03T04:44:19.568Z,17.70
2018-06-03T04:46:47.847Z,17.70
2018-06-03T04:49:16.134Z,17.70
2018-06-03T04:51:44.408Z,17.80
2018-06-03T04:54:12.743Z,17.80
2018-06-03T04:56:41.013Z,17.80
2018-06-03T04:59:09.345Z,17.80
2018-06-03T05:01:37.634Z,17.90
2018-06-03T05:04:05.964Z,17.90
2018-06-03T05:06:34.258Z,17.90
2018-06-03T05:09:02.559Z,17.90
2018-06-03T05:11:30.892Z,17.90
2018-06-03T05:13:59.170Z,17.90
2018-06-03T05:16:27.481Z,17.90
2018-06-03T05:21:23.839Z,17.90
2018-06-03T05:23:52.179Z,17.90
2018-06-03T05:26:20.488Z,17.90
2018-06-03T05:28:48.776Z,17.90
2018-06-03T05:31:17.116Z,17.90
2018-06-03T05:36:13.443Z,18.00
2018-06-03T05:38:41.739Z,18.10
2018-06-03T05:41:10.035Z,18.20
2018-06-03T05:43:38.428Z,18.30
2018-06-03T05:46:06.731Z,18.30
2018-06-03T05:48:34.998Z,18.40
2018-06-03T05:51:03.303Z,18.40
2018-06-03T05:53:31.589Z,18.50
2018-06-03T05:55:59.899Z,18.60
2018-06-03T05:58:28.188Z,18.60
2018-06-03T06:00:56.491Z,18.60
2018-06-03T06:03:24.787Z,18.70
2018-06-03T06:05:53.099Z,18.70
2018-06-03T06:08:21.382Z,18.80
2018-06-03T06:10:49.676Z,18.90
2018-06-03T06:13:17.967Z,18.90
2018-06-03T06:15:46.284Z,19.10
2018-06-03T06:18:14.563Z,19.20
2018-06-03T06:20:42.963Z,19.40
2018-06-03T06:23:11.249Z,19.50
2018-06-03T06:25:39.554Z,19.50
2018-06-03T06:28:07.823Z,19.60
2018-06-03T06:30:36.180Z,19.60
2018-06-03T06:33:04.458Z,19.70
2018-06-03T06:35:32.743Z,19.80
2018-06-03T06:38:01.039Z,19.80
2018-06-03T06:40:29.332Z,19.80
2018-06-03T06:42:59.079Z,19.90
2018-06-03T06:45:27.542Z,19.90
2018-06-03T06:47:55.896Z,20.00
2018-06-03T06:50:24.233Z,20.20
2018-06-03T06:52:58.797Z,20.20
2018-06-03T06:55:32.339Z,20.20
2018-06-03T06:58:03.835Z,20.10
2018-06-03T07:00:32.983Z,20.10
2018-06-03T07:03:01.527Z,20.00
2018-06-03T07:05:34.357Z,20.00
2018-06-03T07:08:03.010Z,20.10
2018-06-03T07:10:31.639Z,20.20
2018-06-03T07:12:59.980Z,20.40
2018-06-03T07:15:30.740Z,20.40
2018-06-03T07:17:59.165Z,20.70
2018-06-03T07:20:27.888Z,20.80
2018-06-03T07:22:56.209Z,20.70
2018-06-03T07:25:24.874Z,20.80
2018-06-03T07:27:53.200Z,20.80
2018-06-03T07:30:21.661Z,20.70
2018-06-03T07:32:50.052Z,20.80
2018-06-03T07:35:18.425Z,21.00
2018-06-03T07:37:46.729Z,21.40
2018-06-03T07:40:15.016Z,21.70
2018-06-03T07:42:43.339Z,22.10
2018-06-03T07:45:11.655Z,22.00
2018-06-03T07:47:39.947Z,21.80
2018-06-03T07:50:08.237Z,21.70
2018-06-03T07:52:36.655Z,21.70
2018-06-03T07:55:04.939Z,21.60
2018-06-03T07:57:33.237Z,21.60
2018-06-03T08:00:01.529Z,21.70
2018-06-03T08:02:29.819Z,21.80
2018-06-03T08:04:58.256Z,22.00
2018-06-03T08:07:26.543Z,22.30
2018-06-03T08:09:54.855Z,22.40
2018-06-03T08:12:24.246Z,22.50
2018-06-03T08:14:52.758Z,22.70
2018-06-03T08:17:21.059Z,22.90
2018-06-03T08:22:17.447Z,23.50
2018-06-03T08:24:45.735Z,23.70
2018-06-03T08:27:14.027Z,23.80
2018-06-03T08:29:42.349Z,23.60
2018-06-03T08:32:10.635Z,23.40
2018-06-03T08:34:38.979Z,22.90
2018-06-03T08:37:07.321Z,22.50
2018-06-03T08:39:35.668Z,22.00
2018-06-03T08:42:03.968Z,21.90
2018-06-03T08:44:32.249Z,21.80
2018-06-03T08:47:00.553Z,21.80
2018-06-03T08:49:28.880Z,21.80
2018-06-03T08:54:25.248Z,22.30
2018-06-03T08:56:53.577Z,22.30
2018-06-03T08:59:21.883Z,22.60
2018-06-03T09:01:50.200Z,23.10
2018-06-03T09:04:18.467Z,23.80
2018-06-03T09:09:14.857Z,25.00
2018-06-03T09:11:43.180Z,25.40
2018-06-03T09:14:11.491Z,25.80
2018-06-03T09:16:39.943Z,26.20
2018-06-03T09:19:08.235Z,26.10
2018-06-03T09:21:36.588Z,26.30
2018-06-03T09:24:04.980Z,26.40
2018-06-03T09:26:33.271Z,26.50
2018-06-03T09:29:01.609Z,26.60
2018-06-03T09:31:29.899Z,26.60
2018-06-03T09:33:58.199Z,26.40
2018-06-03T09:38:54.639Z,26.20
2018-06-03T09:41:23.051Z,26.20
2018-06-03T09:43:51.379Z,26.40
2018-06-03T09:46:19.721Z,26.80
2018-06-03T09:48:48.135Z,26.80
2018-06-03T09:51:16.408Z,27.00
2018-06-03T09:53:44.927Z,26.80
2018-06-03T09:56:13.230Z,26.90
2018-06-03T09:58:41.543Z,26.90
2018-06-03T10:01:09.969Z,26.90
2018-06-03T10:03:38.272Z,27.10
2018-06-03T10:06:06.559Z,27.20
2018-06-03T10:08:34.867Z,27.10
2018-06-03T10:11:03.235Z,26.40
2018-06-03T10:13:31.539Z,26.30
2018-06-03T10:18:28.066Z,26.10
2018-06-03T10:20:56.696Z,26.30
2018-06-03T10:23:24.963Z,26.40
2018-06-03T10:25:53.407Z,26.60
2018-06-03T10:28:21.684Z,26.80
2018-06-03T10:30:49.971Z,27.00
2018-06-03T10:33:18.344Z,27.30
2018-06-03T10:35:46.651Z,27.30
2018-06-03T10:38:14.942Z,27.20
2018-06-03T10:40:43.274Z,27.00
2018-06-03T10:43:11.542Z,26.70
2018-06-03T10:45:39.874Z,26.60
2018-06-03T10:48:08.175Z,26.80
2018-06-03T10:50:36.483Z,27.00
2018-06-03T10:53:04.747Z,27.20
2018-06-03T10:55:33.124Z,27.10
2018-06-03T10:58:01.483Z,26.80
2018-06-03T11:00:29.842Z,26.70
2018-06-03T11:02:58.270Z,26.50
2018-06-03T11:05:26.716Z,26.20
2018-06-03T11:08:00.280Z,25.90
2018-06-03T11:12:57.075Z,26.00
2018-06-03T11:15:25.666Z,26.10
2018-06-03T11:17:54.077Z,26.40
2018-06-03T11:20:23.254Z,26.50
2018-06-03T11:22:53.372Z,26.60
2018-06-03T11:25:22.760Z,26.80
2018-06-03T11:27:51.762Z,25.40
2018-06-03T11:30:20.065Z,26.20
2018-06-03T11:32:49.218Z,26.40
2018-06-03T11:35:17.708Z,26.70
2018-06-03T11:37:46.000Z,27.10
2018-06-03T11:40:14.679Z,27.30
2018-06-03T11:42:43.027Z,27.00
2018-06-03T11:45:11.840Z,26.80
2018-06-03T11:50:08.371Z,27.10
2018-06-03T11:52:36.792Z,27.30
2018-06-03T11:55:05.578Z,27.30
2018-06-03T11:57:45.099Z,27.50
2018-06-03T12:00:13.440Z,27.20
2018-06-03T12:02:41.704Z,27.20
2018-06-03T12:05:10.032Z,27.30
2018-06-03T12:07:38.319Z,27.50
2018-06-03T12:10:06.625Z,27.60
2018-06-03T12:12:34.900Z,27.70
2018-06-03T12:15:03.194Z,28.00
2018-06-03T12:17:42.398Z,28.20
2018-06-03T12:20:18.612Z,28.30
2018-06-03T12:22:47.875Z,28.30
2018-06-03T12:25:16.164Z,28.30
2018-06-03T12:27:44.436Z,27.90
2018-06-03T12:30:12.736Z,27.90
2018-06-03T12:32:41.003Z,27.90
2018-06-03T12:35:09.295Z,27.60
2018-06-03T12:37:37.584Z,27.40
2018-06-03T12:40:05.878Z,27.10
2018-06-03T12:42:34.166Z,26.80
2018-06-03T12:45:02.462Z,26.70
2018-06-03T12:47:30.771Z,26.60
2018-06-03T12:49:59.070Z,27.00
2018-06-03T12:52:27.364Z,27.40
2018-06-03T12:54:55.631Z,27.60
2018-06-03T12:57:23.967Z,27.70
2018-06-03T12:59:52.254Z,27.60
2018-06-03T13:02:20.604Z,27.70
2018-06-03T13:04:48.891Z,27.40
2018-06-03T13:07:17.183Z,26.90
2018-06-03T13:09:45.472Z,26.80
2018-06-03T13:12:13.776Z,26.80
2018-06-03T13:14:42.065Z,26.60
2018-06-03T13:17:10.480Z,26.40
2018-06-03T13:19:38.766Z,26.20
2018-06-03T13:22:07.066Z,26.10
2018-06-03T13:24:35.343Z,26.10
2018-06-03T13:27:03.664Z,26.10
2018-06-03T13:29:31.949Z,25.90
2018-06-03T13:34:39.011Z,25.50
2018-06-03T13:37:15.509Z,25.40
2018-06-03T13:39:51.572Z,25.40
2018-06-03T13:42:19.971Z,25.30
2018-06-03T13:44:55.265Z,25.30
2018-06-03T13:47:31.069Z,25.10
2018-06-03T13:50:04.989Z,25.10
2018-06-03T13:52:34.610Z,25.10
2018-06-03T13:55:08.674Z,25.10
2018-06-03T13:57:37.686Z,25.40
2018-06-03T14:00:10.217Z,25.40
2018-06-03T14:02:38.715Z,25.40
2018-06-03T14:05:17.016Z,25.50
2018-06-03T14:07:45.767Z,25.60
2018-06-03T14:10:14.039Z,25.70
2018-06-03T14:12:42.333Z,26.00
2018-06-03T14:15:15.858Z,26.20
2018-06-03T14:17:51.801Z,26.60
2018-06-03T14:20:23.545Z,26.80
2018-06-03T14:22:51.886Z,26.80
2018-06-03T14:25:20.221Z,27.00
2018-06-03T14:27:48.517Z,27.20
2018-06-03T14:30:16.830Z,27.30
2018-06-03T14:32:52.819Z,27.40
2018-06-03T14:35:28.483Z,27.40
2018-06-03T14:37:56.959Z,27.50
2018-06-03T14:40:25.366Z,27.60
2018-06-03T14:42:53.651Z,27.90
2018-06-03T14:45:23.854Z,28.00
2018-06-03T14:48:01.796Z,28.10
2018-06-03T14:50:30.566Z,28.10
2018-06-03T14:52:58.880Z,28.10
2018-06-03T14:55:30.438Z,28.20
2018-06-03T14:58:03.474Z,28.10
2018-06-03T15:00:31.750Z,28.10
2018-06-03T15:03:00.374Z,28.10
2018-06-03T15:05:29.236Z,28.20
2018-06-03T15:07:57.524Z,28.20
2018-06-03T15:10:25.887Z,28.10
2018-06-03T15:12:54.688Z,27.50
2018-06-03T15:15:22.988Z,27.10
2018-06-03T15:17:51.341Z,26.90
2018-06-03T15:20:19.695Z,26.70
2018-06-03T15:22:47.967Z,26.50
2018-06-03T15:25:16.275Z,26.40
2018-06-03T15:27:44.621Z,26.50
2018-06-03T15:30:12.928Z,26.80
2018-06-03T15:32:41.195Z,26.90
2018-06-03T15:35:09.512Z,26.70
2018-06-03T15:37:37.783Z,26.20
2018-06-03T15:40:06.114Z,26.00
2018-06-03T15:42:34.379Z,26.10
2018-06-03T15:45:02.691Z,26.40
2018-06-03T15:47:30.965Z,26.80
2018-06-03T15:49:59.275Z,27.10
2018-06-03T15:52:27.573Z,27.30
2018-06-03T15:54:55.851Z,27.40
2018-06-03T15:57:24.164Z,27.40
2018-06-03T15:59:52.427Z,27.40
2018-06-03T16:02:20.723Z,27.50
2018-06-03T16:04:49.075Z,27.50
2018-06-03T16:07:17.399Z,27.40
2018-06-03T16:09:45.684Z,27.30
2018-06-03T16:12:14.052Z,27.10
2018-06-03T16:14:42.354Z,27.00
2018-06-03T16:17:10.759Z,27.00
2018-06-03T16:19:39.012Z,26.70
2018-06-03T16:22:07.409Z,26.60
2018-06-03T16:24:35.683Z,26.50
2018-06-03T16:27:04.012Z,26.40
2018-06-03T16:29:32.383Z,26.30
2018-06-03T16:32:00.676Z,26.20
2018-06-03T16:34:28.975Z,26.20
2018-06-03T16:36:57.272Z,26.10
2018-06-03T16:39:25.534Z,26.20
2018-06-03T16:41:53.811Z,26.20
2018-06-03T16:44:22.161Z,26.10
2018-06-03T16:46:50.442Z,26.10
2018-06-03T16:49:18.714Z,26.10
2018-06-03T16:51:47.012Z,26.10
2018-06-03T16:54:15.297Z,26.00
2018-06-03T16:56:43.592Z,25.90
2018-06-03T16:59:11.884Z,25.80
2018-06-03T17:04:08.201Z,25.60
2018-06-03T17:06:36.599Z,25.50
2018-06-03T17:09:06.439Z,25.40
2018-06-03T17:11:34.756Z,25.30
2018-06-03T17:14:03.036Z,25.20
2018-06-03T17:16:31.348Z,25.20
2018-06-03T17:18:59.647Z,25.20
2018-06-03T17:21:27.913Z,25.10
2018-06-03T17:23:56.203Z,25.10
2018-06-03T17:26:24.480Z,25.00
2018-06-03T17:28:52.871Z,24.90
2018-06-03T17:31:21.148Z,24.80
2018-06-03T17:33:49.452Z,24.60
2018-06-03T17:38:45.850Z,24.50
2018-06-03T17:41:14.123Z,24.50
2018-06-03T17:43:42.407Z,24.60
2018-06-03T17:46:10.751Z,24.70
2018-06-03T17:53:35.243Z,24.90
2018-06-03T17:56:03.506Z,25.00
2018-06-03T17:58:31.879Z,25.00
2018-06-03T18:01:00.263Z,25.00
2018-06-03T18:03:28.575Z,25.10
2018-06-03T18:05:56.951Z,25.00
2018-06-03T18:08:25.292Z,24.90
2018-06-03T18:10:53.874Z,24.70
2018-06-03T18:13:22.184Z,24.60
2018-06-03T18:15:50.452Z,24.40
2018-06-03T18:20:46.852Z,24.10
2018-06-03T18:23:15.150Z,23.90
2018-06-03T18:25:43.810Z,23.60
2018-06-03T18:28:12.148Z,23.40
2018-06-03T18:30:40.465Z,23.20
2018-06-03T18:33:08.934Z,23.00
2018-06-03T18:35:37.215Z,22.90
2018-06-03T18:38:05.496Z,22.70
2018-06-03T18:43:01.863Z,22.40
2018-06-03T18:45:30.173Z,22.20
2018-06-03T18:47:58.444Z,22.00
2018-06-03T18:50:26.768Z,21.90
2018-06-03T18:52:55.211Z,21.80
2018-06-03T18:55:23.555Z,21.60
2018-06-03T18:57:51.932Z,21.50
2018-06-03T19:00:20.965Z,21.40
2018-06-03T19:02:49.728Z,21.40
2018-06-03T19:05:19.202Z,21.20
2018-06-03T19:07:48.026Z,21.10
2018-06-03T19:10:17.010Z,21.10
2018-06-03T19:12:45.578Z,20.90
2018-06-03T19:15:14.259Z,20.80
2018-06-03T19:17:43.289Z,20.70
2018-06-03T19:20:12.249Z,20.60
2018-06-03T19:22:41.226Z,20.50
2018-06-03T19:25:10.138Z,20.50
2018-06-03T19:27:38.644Z,20.40
2018-06-03T19:30:07.285Z,20.30
2018-06-03T19:32:35.595Z,20.30
2018-06-03T19:35:03.879Z,20.20
2018-06-03T19:37:32.163Z,20.10
2018-06-03T19:40:00.455Z,20.00
2018-06-03T19:42:28.724Z,19.90
2018-06-03T19:44:57.019Z,19.80
2018-06-03T19:47:25.290Z,19.70
2018-06-03T19:49:53.607Z,19.60
2018-06-03T19:52:21.926Z,19.50
2018-06-03T19:54:50.208Z,19.40
2018-06-03T19:57:18.539Z,19.40
2018-06-03T19:59:46.892Z,19.30
2018-06-03T20:02:15.150Z,19.30
2018-06-03T20:04:43.457Z,19.30
2018-06-03T20:07:11.735Z,19.20
2018-06-03T20:09:40.020Z,19.20
2018-06-03T20:12:08.342Z,19.10
2018-06-03T20:14:36.768Z,19.00
2018-06-03T20:17:05.062Z,18.90
2018-06-03T20:19:33.351Z,18.90
2018-06-03T20:22:01.636Z,18.80
2018-06-03T20:24:29.907Z,18.80
2018-06-03T20:26:58.213Z,18.70
2018-06-03T20:29:26.491Z,18.70
2018-06-03T20:31:54.794Z,18.70
2018-06-03T20:34:23.119Z,18.60
2018-06-03T20:36:51.475Z,18.60
2018-06-03T20:39:19.790Z,18.60
2018-06-03T20:41:48.094Z,18.50
2018-06-03T20:44:16.439Z,18.50
2018-06-03T20:46:44.730Z,18.40
2018-06-03T20:49:13.016Z,18.40
2018-06-03T20:51:41.315Z,18.30
2018-06-03T20:54:09.574Z,18.30
2018-06-03T20:59:06.255Z,18.20
2018-06-03T21:01:34.531Z,18.20
2018-06-03T21:04:02.803Z,18.10
2018-06-03T21:06:31.101Z,18.10
2018-06-03T21:08:59.399Z,18.10
2018-06-03T21:11:27.679Z,18.00
2018-06-03T21:13:55.951Z,18.00
2018-06-03T21:16:24.222Z,17.90
2018-06-03T21:18:52.576Z,17.80
2018-06-03T21:21:20.867Z,17.80
2018-06-03T21:23:49.135Z,17.70
2018-06-03T21:26:17.423Z,17.70
2018-06-03T21:28:45.710Z,17.70
2018-06-03T21:31:14.003Z,17.70
2018-06-03T21:33:42.276Z,17.70
2018-06-03T21:36:10.575Z,17.70
2018-06-03T21:38:38.846Z,17.70
2018-06-03T21:41:07.112Z,17.70
2018-06-03T21:43:35.394Z,17.70
2018-06-03T21:46:03.663Z,17.70
2018-06-03T21:48:32.008Z,17.60
2018-06-03T21:51:00.275Z,17.60
2018-06-03T21:53:28.550Z,17.50
2018-06-03T21:55:56.820Z,17.50
2018-06-03T21:58:25.159Z,17.50
2018-06-03T22:00:53.439Z,17.50
2018-06-03T22:08:17.860Z,17.50
2018-06-03T22:10:46.134Z,17.50
2018-06-03T22:13:14.427Z,17.40
2018-06-03T22:15:42.708Z,17.30
2018-06-03T22:18:11.005Z,17.30
2018-06-03T22:20:39.285Z,17.30
2018-06-03T22:23:07.587Z,17.20
2018-06-03T22:25:35.867Z,17.20
2018-06-03T22:28:04.173Z,17.20
2018-06-03T22:30:32.448Z,17.20
2018-06-03T22:33:00.764Z,17.20
2018-06-03T22:35:29.066Z,17.20
2018-06-03T22:37:57.404Z,17.20
2018-06-03T22:40:25.675Z,17.10
2018-06-03T22:42:53.974Z,17.00
2018-06-03T22:45:22.247Z,17.00
2018-06-03T22:47:50.549Z,17.00
2018-06-03T22:50:18.836Z,17.00
2018-06-03T22:52:47.131Z,16.90
2018-06-03T22:55:15.411Z,16.90
2018-06-03T22:57:51.166Z,16.90
2018-06-03T23:00:24.883Z,16.90
2018-06-03T23:02:58.511Z,16.90
2018-06-03T23:05:26.811Z,16.90
2018-06-03T23:07:55.150Z,16.80
2018-06-03T23:10:24.383Z,16.80
2018-06-03T23:12:52.663Z,16.80
2018-06-03T23:15:20.980Z,16.70
2018-06-03T23:17:49.270Z,16.70
2018-06-03T23:20:17.571Z,16.70
2018-06-03T23:22:45.856Z,16.60
2018-06-03T23:25:14.151Z,16.60
2018-06-03T23:27:42.427Z,16.60
2018-06-03T23:30:10.730Z,16.50
2018-06-03T23:32:39.023Z,16.40
2018-06-03T23:35:07.319Z,16.40
2018-06-03T23:37:35.608Z,16.30
2018-06-03T23:40:04.023Z,16.30
2018-06-03T23:42:32.308Z,16.30
2018-06-03T23:45:00.583Z,16.30
2018-06-03T23:47:28.855Z,16.30
2018-06-03T23:49:57.143Z,16.30
2018-06-03T23:52:25.421Z,16.20
2018-06-03T23:54:53.739Z,16.20
2018-06-03T23:57:22.057Z,16.20
2018-06-03T23:59:50.371Z,16.20
